sensor_id;sensor_type;location;lat;lon;timestamp;pressure;altitude;pressure_sealevel;temperature;humidity
78986;BME280;68384;55.750;48.746;2023-03-30T00:00:18;99359.16;;;1.84;65.34
78986;BME280;68384;55.750;48.746;2023-03-30T00:01:22;99360.88;;;1.84;65.22
78986;BME280;68384;55.750;48.746;2023-03-30T00:02:27;99356.59;;;1.84;65.29
78986;BME280;68384;55.750;48.746;2023-03-30T00:03:31;99361.00;;;1.87;65.02
78986;BME280;68384;55.750;48.746;2023-03-30T00:04:35;99359.34;;;1.87;65.11
78986;BME280;68384;55.750;48.746;2023-03-30T00:05:39;99351.69;;;1.87;65.30
78986;BME280;68384;55.750;48.746;2023-03-30T00:06:44;99352.50;;;1.86;65.46
78986;BME280;68384;55.750;48.746;2023-03-30T00:07:46;99348.25;;;1.87;65.44
78986;BME280;68384;55.750;48.746;2023-03-30T00:08:52;99346.50;;;1.86;65.37
78986;BME280;68384;55.750;48.746;2023-03-30T00:09:58;99349.13;;;1.87;65.26
78986;BME280;68384;55.750;48.746;2023-03-30T00:11:05;99349.13;;;1.87;65.27
78986;BME280;68384;55.750;48.746;2023-03-30T00:12:08;99357.59;;;1.86;65.30
78986;BME280;68384;55.750;48.746;2023-03-30T00:13:12;99357.59;;;1.86;65.28
78986;BME280;68384;55.750;48.746;2023-03-30T00:14:14;99349.06;;;1.86;65.30
78986;BME280;68384;55.750;48.746;2023-03-30T00:15:21;99349.06;;;1.86;65.46
78986;BME280;68384;55.750;48.746;2023-03-30T00:16:25;99349.13;;;1.87;65.30
78986;BME280;68384;55.750;48.746;2023-03-30T00:17:28;99344.00;;;1.87;65.50
78986;BME280;68384;55.750;48.746;2023-03-30T00:18:32;99341.47;;;1.87;65.50
78986;BME280;68384;55.750;48.746;2023-03-30T00:19:37;99344.91;;;1.88;65.32
78986;BME280;68384;55.750;48.746;2023-03-30T00:20:40;99343.13;;;1.87;65.43
78986;BME280;68384;55.750;48.746;2023-03-30T00:21:44;99339.91;;;1.89;65.42
78986;BME280;68384;55.750;48.746;2023-03-30T00:22:46;99351.78;;;1.89;65.52
78986;BME280;68384;55.750;48.746;2023-03-30T00:23:51;99342.34;;;1.88;65.47
78986;BME280;68384;55.750;48.746;2023-03-30T00:24:55;99342.16;;;1.85;65.18
78986;BME280;68384;55.750;48.746;2023-03-30T00:25:58;99341.38;;;1.86;65.35
78986;BME280;68384;55.750;48.746;2023-03-30T00:27:02;99342.28;;;1.86;65.83
78986;BME280;68384;55.750;48.746;2023-03-30T00:28:05;99338.72;;;1.84;65.30
78986;BME280;68384;55.750;48.746;2023-03-30T00:29:08;99343.13;;;1.87;65.46
78986;BME280;68384;55.750;48.746;2023-03-30T00:30:12;99347.38;;;1.86;65.74
78986;BME280;68384;55.750;48.746;2023-03-30T00:31:16;99347.28;;;1.85;65.36
78986;BME280;68384;55.750;48.746;2023-03-30T00:32:19;99358.38;;;1.85;65.65
78986;BME280;68384;55.750;48.746;2023-03-30T00:33:23;99354.06;;;1.84;65.46
78986;BME280;68384;55.750;48.746;2023-03-30T00:34:45;99351.44;;;1.83;65.63
78986;BME280;68384;55.750;48.746;2023-03-30T00:35:51;99352.03;;;1.79;65.46
78986;BME280;68384;55.750;48.746;2023-03-30T00:36:53;99348.69;;;1.80;65.77
78986;BME280;68384;55.750;48.746;2023-03-30T00:37:58;99353.91;;;1.81;65.95
78986;BME280;68384;55.750;48.746;2023-03-30T00:39:05;99359.69;;;1.79;65.75
78986;BME280;68384;55.750;48.746;2023-03-30T00:40:15;99347.63;;;1.76;65.72
78986;BME280;68384;55.750;48.746;2023-03-30T00:41:18;99353.63;;;1.77;65.82
78986;BME280;68384;55.750;48.746;2023-03-30T00:42:21;99347.63;;;1.76;66.15
78986;BME280;68384;55.750;48.746;2023-03-30T00:43:25;99356.88;;;1.74;66.03
78986;BME280;68384;55.750;48.746;2023-03-30T00:45:08;99355.09;;;1.73;66.16
78986;BME280;68384;55.750;48.746;2023-03-30T00:46:12;99352.47;;;1.72;66.16
78986;BME280;68384;55.750;48.746;2023-03-30T00:47:15;99354.25;;;1.73;65.90
78986;BME280;68384;55.750;48.746;2023-03-30T00:48:21;99347.38;;;1.72;66.16
78986;BME280;68384;55.750;48.746;2023-03-30T00:49:24;99352.47;;;1.72;66.02
78986;BME280;68384;55.750;48.746;2023-03-30T00:50:31;99352.53;;;1.73;66.13
78986;BME280;68384;55.750;48.746;2023-03-30T00:51:37;99353.34;;;1.72;65.75
78986;BME280;68384;55.750;48.746;2023-03-30T00:52:44;99349.91;;;1.72;66.12
78986;BME280;68384;55.750;48.746;2023-03-30T00:53:49;99349.03;;;1.71;66.07
78986;BME280;68384;55.750;48.746;2023-03-30T00:54:55;99352.41;;;1.70;66.24
78986;BME280;68384;55.750;48.746;2023-03-30T00:55:59;99344.63;;;1.69;66.58
78986;BME280;68384;55.750;48.746;2023-03-30T00:57:05;99342.06;;;1.69;66.34
78986;BME280;68384;55.750;48.746;2023-03-30T00:58:08;99349.84;;;1.70;66.46
78986;BME280;68384;55.750;48.746;2023-03-30T00:59:13;99348.84;;;1.68;66.53
78986;BME280;68384;55.750;48.746;2023-03-30T01:00:16;99345.50;;;1.69;66.21
78986;BME280;68384;55.750;48.746;2023-03-30T01:01:20;99337.75;;;1.68;66.69
78986;BME280;68384;55.750;48.746;2023-03-30T01:02:30;99345.41;;;1.68;66.45
78986;BME280;68384;55.750;48.746;2023-03-30T01:03:39;99337.66;;;1.66;66.67
78986;BME280;68384;55.750;48.746;2023-03-30T01:04:45;99336.19;;;1.70;66.33
78986;BME280;68384;55.750;48.746;2023-03-30T01:05:50;99340.41;;;1.69;66.34
78986;BME280;68384;55.750;48.746;2023-03-30T01:06:53;99337.84;;;1.69;66.13
78986;BME280;68384;55.750;48.746;2023-03-30T01:07:59;99330.00;;;1.66;66.42
78986;BME280;68384;55.750;48.746;2023-03-30T01:09:08;99329.94;;;1.65;66.45
78986;BME280;68384;55.750;48.746;2023-03-30T01:10:13;99326.56;;;1.66;66.51
78986;BME280;68384;55.750;48.746;2023-03-30T01:11:16;99335.81;;;1.64;66.35
78986;BME280;68384;55.750;48.746;2023-03-30T01:12:20;99334.16;;;1.64;66.62
78986;BME280;68384;55.750;48.746;2023-03-30T01:13:23;99328.84;;;1.61;66.59
78986;BME280;68384;55.750;48.746;2023-03-30T01:14:26;99332.47;;;1.65;66.53
78986;BME280;68384;55.750;48.746;2023-03-30T01:15:31;99328.22;;;1.65;66.74
78986;BME280;68384;55.750;48.746;2023-03-30T01:16:42;99328.16;;;1.64;66.44
78986;BME280;68384;55.750;48.746;2023-03-30T01:18:13;99324.63;;;1.62;66.74
78986;BME280;68384;55.750;48.746;2023-03-30T01:19:45;99327.97;;;1.61;66.70
78986;BME280;68384;55.750;48.746;2023-03-30T01:21:46;99321.97;;;1.60;66.79
78986;BME280;68384;55.750;48.746;2023-03-30T01:24:53;99323.56;;;1.58;66.99
78986;BME280;68384;55.750;48.746;2023-03-30T01:26:28;99320.03;;;1.56;67.06
78986;BME280;68384;55.750;48.746;2023-03-30T01:27:54;99318.19;;;1.54;67.13
78986;BME280;68384;55.750;48.746;2023-03-30T01:29:10;99309.53;;;1.52;67.07
78986;BME280;68384;55.750;48.746;2023-03-30T01:30:29;99310.53;;;1.54;67.08
78986;BME280;68384;55.750;48.746;2023-03-30T01:32:08;99318.97;;;1.53;67.11
78986;BME280;68384;55.750;48.746;2023-03-30T01:37:13;99318.53;;;1.45;67.37
78986;BME280;68384;55.750;48.746;2023-03-30T01:38:38;99313.31;;;1.44;67.34
78986;BME280;68384;55.750;48.746;2023-03-30T01:39:54;99308.22;;;1.44;67.35
78986;BME280;68384;55.750;48.746;2023-03-30T01:41:01;99309.81;;;1.42;67.57
78986;BME280;68384;55.750;48.746;2023-03-30T01:42:15;99315.69;;;1.40;67.64
78986;BME280;68384;55.750;48.746;2023-03-30T01:43:26;99318.16;;;1.39;67.48
78986;BME280;68384;55.750;48.746;2023-03-30T01:44:37;99309.63;;;1.38;67.74
78986;BME280;68384;55.750;48.746;2023-03-30T01:45:45;99319.75;;;1.37;67.80
78986;BME280;68384;55.750;48.746;2023-03-30T01:46:52;99309.53;;;1.37;67.68
78986;BME280;68384;55.750;48.746;2023-03-30T01:48:06;99327.41;;;1.37;67.93
78986;BME280;68384;55.750;48.746;2023-03-30T01:49:13;99322.31;;;1.37;67.63
78986;BME280;68384;55.750;48.746;2023-03-30T01:50:24;99318.75;;;1.35;67.58
78986;BME280;68384;55.750;48.746;2023-03-30T01:51:31;99321.31;;;1.35;67.88
78986;BME280;68384;55.750;48.746;2023-03-30T01:52:38;99317.91;;;1.34;67.67
78986;BME280;68384;55.750;48.746;2023-03-30T01:53:46;99319.63;;;1.35;67.82
78986;BME280;68384;55.750;48.746;2023-03-30T01:54:59;99325.63;;;1.36;67.53
78986;BME280;68384;55.750;48.746;2023-03-30T01:56:06;99326.53;;;1.36;67.78
78986;BME280;68384;55.750;48.746;2023-03-30T01:57:16;99326.53;;;1.36;67.90
78986;BME280;68384;55.750;48.746;2023-03-30T01:58:23;99322.91;;;1.33;67.81
78986;BME280;68384;55.750;48.746;2023-03-30T01:59:32;99321.41;;;1.36;67.67
78986;BME280;68384;55.750;48.746;2023-03-30T02:00:39;99321.41;;;1.36;67.92
78986;BME280;68384;55.750;48.746;2023-03-30T02:01:45;99326.53;;;1.36;67.88
78986;BME280;68384;55.750;48.746;2023-03-30T02:02:54;99322.31;;;1.37;67.97
78986;BME280;68384;55.750;48.746;2023-03-30T02:04:00;99320.72;;;1.39;67.71
78986;BME280;68384;55.750;48.746;2023-03-30T02:05:06;99312.78;;;1.34;68.06
78986;BME280;68384;55.750;48.746;2023-03-30T02:06:15;99321.31;;;1.35;67.92
78986;BME280;68384;55.750;48.746;2023-03-30T02:07:24;99317.00;;;1.34;67.97
78986;BME280;68384;55.750;48.746;2023-03-30T02:08:32;99312.59;;;1.31;67.91
78986;BME280;68384;55.750;48.746;2023-03-30T02:09:37;99310.13;;;1.33;68.15
78986;BME280;68384;55.750;48.746;2023-03-30T02:10:44;99307.41;;;1.30;68.01
78986;BME280;68384;55.750;48.746;2023-03-30T02:11:50;99316.03;;;1.32;67.88
78986;BME280;68384;55.750;48.746;2023-03-30T02:12:56;99314.47;;;1.34;68.13
78986;BME280;68384;55.750;48.746;2023-03-30T02:14:01;99317.00;;;1.34;68.03
78986;BME280;68384;55.750;48.746;2023-03-30T02:15:08;99311.09;;;1.35;68.00
78986;BME280;68384;55.750;48.746;2023-03-30T02:16:14;99319.56;;;1.34;67.95
78986;BME280;68384;55.750;48.746;2023-03-30T02:17:21;99322.19;;;1.35;67.87
78986;BME280;68384;55.750;48.746;2023-03-30T02:18:24;99310.31;;;1.36;67.77
78986;BME280;68384;55.750;48.746;2023-03-30T02:19:28;99321.41;;;1.36;67.79
78986;BME280;68384;55.750;48.746;2023-03-30T02:20:32;99311.97;;;1.35;67.82
78986;BME280;68384;55.750;48.746;2023-03-30T02:21:37;99314.66;;;1.37;67.93
78986;BME280;68384;55.750;48.746;2023-03-30T02:22:39;99313.84;;;1.38;67.58
78986;BME280;68384;55.750;48.746;2023-03-30T02:23:43;99312.28;;;1.40;67.46
78986;BME280;68384;55.750;48.746;2023-03-30T02:24:48;99311.56;;;1.43;67.59
78986;BME280;68384;55.750;48.746;2023-03-30T02:25:55;99314.91;;;1.42;67.51
78986;BME280;68384;55.750;48.746;2023-03-30T02:26:59;99308.53;;;1.35;67.54
78986;BME280;68384;55.750;48.746;2023-03-30T02:28:04;99316.75;;;1.44;67.42
78986;BME280;68384;55.750;48.746;2023-03-30T02:29:08;99322.75;;;1.45;67.58
78986;BME280;68384;55.750;48.746;2023-03-30T02:30:12;99316.06;;;1.47;67.29
78986;BME280;68384;55.750;48.746;2023-03-30T02:31:16;99315.16;;;1.46;67.35
78986;BME280;68384;55.750;48.746;2023-03-30T02:32:21;99308.50;;;1.48;67.37
78986;BME280;68384;55.750;48.746;2023-03-30T02:33:31;99315.28;;;1.48;67.10
78986;BME280;68384;55.750;48.746;2023-03-30T02:34:48;99312.78;;;1.49;67.25
78986;BME280;68384;55.750;48.746;2023-03-30T02:36:12;99307.69;;;1.49;67.15
78986;BME280;68384;55.750;48.746;2023-03-30T02:37:34;99309.47;;;1.50;66.76
78986;BME280;68384;55.750;48.746;2023-03-30T02:38:54;99309.47;;;1.50;67.14
78986;BME280;68384;55.750;48.746;2023-03-30T02:40:12;99308.69;;;1.51;67.05
78986;BME280;68384;55.750;48.746;2023-03-30T02:41:29;99305.44;;;1.54;66.96
78986;BME280;68384;55.750;48.746;2023-03-30T02:42:55;99305.31;;;1.52;66.59
78986;BME280;68384;55.750;48.746;2023-03-30T02:44:06;99308.06;;;1.55;66.87
78986;BME280;68384;55.750;48.746;2023-03-30T02:45:25;99293.34;;;1.51;67.04
78986;BME280;68384;55.750;48.746;2023-03-30T02:46:44;99299.63;;;1.56;66.95
78986;BME280;68384;55.750;48.746;2023-03-30T02:47:59;99306.38;;;1.56;66.86
78986;BME280;68384;55.750;48.746;2023-03-30T02:49:13;99301.53;;;1.60;66.90
78986;BME280;68384;55.750;48.746;2023-03-30T02:50:24;99311.75;;;1.60;66.75
78986;BME280;68384;55.750;48.746;2023-03-30T02:51:37;99304.28;;;1.63;66.78
78986;BME280;68384;55.750;48.746;2023-03-30T02:52:51;99298.38;;;1.64;66.30
78986;BME280;68384;55.750;48.746;2023-03-30T02:54:00;99292.47;;;1.65;66.67
78986;BME280;68384;55.750;48.746;2023-03-30T02:55:13;99296.78;;;1.66;66.56
78986;BME280;68384;55.750;48.746;2023-03-30T02:56:24;99300.31;;;1.68;66.53
78986;BME280;68384;55.750;48.746;2023-03-30T02:57:34;99298.75;;;1.70;66.50
78986;BME280;68384;55.750;48.746;2023-03-30T02:58:41;99301.38;;;1.72;66.49
78986;BME280;68384;55.750;48.746;2023-03-30T02:59:51;99296.34;;;1.73;66.38
78986;BME280;68384;55.750;48.746;2023-03-30T03:00:59;99300.84;;;1.77;66.38
78986;BME280;68384;55.750;48.746;2023-03-30T03:02:09;99301.81;;;1.79;66.22
78986;BME280;68384;55.750;48.746;2023-03-30T03:03:16;99308.59;;;1.79;66.22
78986;BME280;68384;55.750;48.746;2023-03-30T03:04:22;99309.66;;;1.82;66.41
78986;BME280;68384;55.750;48.746;2023-03-30T03:05:27;99311.50;;;1.85;66.17
78986;BME280;68384;55.750;48.746;2023-03-30T03:06:33;99304.78;;;1.87;66.28
78986;BME280;68384;55.750;48.746;2023-03-30T03:07:36;99292.00;;;1.87;66.03
78986;BME280;68384;55.750;48.746;2023-03-30T03:08:42;99295.91;;;1.80;65.89
78986;BME280;68384;55.750;48.746;2023-03-30T03:09:45;99311.59;;;1.86;66.03
78986;BME280;68384;55.750;48.746;2023-03-30T03:10:49;99309.13;;;1.88;65.83
78986;BME280;68384;55.750;48.746;2023-03-30T03:11:55;99307.34;;;1.87;65.91
78986;BME280;68384;55.750;48.746;2023-03-30T03:12:58;99306.69;;;1.89;65.97
78986;BME280;68384;55.750;48.746;2023-03-30T03:14:01;99307.72;;;1.93;65.98
78986;BME280;68384;55.750;48.746;2023-03-30T03:15:06;99302.78;;;1.96;65.91
78986;BME280;68384;55.750;48.746;2023-03-30T03:16:09;99298.53;;;1.96;65.90
78986;BME280;68384;55.750;48.746;2023-03-30T03:17:13;99302.88;;;1.97;65.94
78986;BME280;68384;55.750;48.746;2023-03-30T03:18:18;99290.94;;;1.98;65.82
78986;BME280;68384;55.750;48.746;2023-03-30T03:19:22;99291.94;;;2.00;65.96
78986;BME280;68384;55.750;48.746;2023-03-30T03:20:24;99293.78;;;2.03;65.71
78986;BME280;68384;55.750;48.746;2023-03-30T03:21:31;99298.91;;;2.03;65.60
78986;BME280;68384;55.750;48.746;2023-03-30T03:22:34;99292.97;;;2.04;65.62
78986;BME280;68384;55.750;48.746;2023-03-30T03:23:37;99298.19;;;2.05;65.83
78986;BME280;68384;55.750;48.746;2023-03-30T03:24:40;99297.47;;;2.08;65.82
78986;BME280;68384;55.750;48.746;2023-03-30T03:25:43;99295.09;;;2.11;65.64
78986;BME280;68384;55.750;48.746;2023-03-30T03:26:46;99294.28;;;2.12;65.52
78986;BME280;68384;55.750;48.746;2023-03-30T03:27:51;99300.28;;;2.12;65.55
78986;BME280;68384;55.750;48.746;2023-03-30T03:28:53;99288.38;;;2.13;65.46
78986;BME280;68384;55.750;48.746;2023-03-30T03:29:57;99290.22;;;2.15;65.15
78986;BME280;68384;55.750;48.746;2023-03-30T03:31:00;99280.91;;;2.16;65.44
78986;BME280;68384;55.750;48.746;2023-03-30T03:32:05;99282.66;;;2.17;65.33
78986;BME280;68384;55.750;48.746;2023-03-30T03:33:08;99289.34;;;2.15;65.38
78986;BME280;68384;55.750;48.746;2023-03-30T03:34:12;99286.00;;;2.16;65.46
78986;BME280;68384;55.750;48.746;2023-03-30T03:35:16;99283.44;;;2.16;65.73
78986;BME280;68384;55.750;48.746;2023-03-30T03:36:20;99272.25;;;2.14;65.56
78986;BME280;68384;55.750;48.746;2023-03-30T03:37:24;99280.09;;;2.17;65.51
78986;BME280;68384;55.750;48.746;2023-03-30T03:38:27;99273.22;;;2.16;65.34
78986;BME280;68384;55.750;48.746;2023-03-30T03:39:31;99275.84;;;2.17;65.44
78986;BME280;68384;55.750;48.746;2023-03-30T03:40:33;99263.06;;;2.17;65.44
78986;BME280;68384;55.750;48.746;2023-03-30T03:41:37;99267.41;;;2.18;65.64
78986;BME280;68384;55.750;48.746;2023-03-30T03:42:40;99273.28;;;2.17;65.55
78986;BME280;68384;55.750;48.746;2023-03-30T03:43:45;99281.06;;;2.19;65.44
78986;BME280;68384;55.750;48.746;2023-03-30T03:44:47;99289.81;;;2.22;64.95
78986;BME280;68384;55.750;48.746;2023-03-30T03:45:52;99286.44;;;2.23;65.00
78986;BME280;68384;55.750;48.746;2023-03-30T03:46:54;99286.53;;;2.25;65.04
78986;BME280;68384;55.750;48.746;2023-03-30T03:47:58;99288.44;;;2.29;65.06
78986;BME280;68384;55.750;48.746;2023-03-30T03:49:00;99302.19;;;2.31;65.15
78986;BME280;68384;55.750;48.746;2023-03-30T03:50:05;99304.03;;;2.33;64.92
78986;BME280;68384;55.750;48.746;2023-03-30T03:51:10;99299.91;;;2.35;64.98
78986;BME280;68384;55.750;48.746;2023-03-30T03:52:14;99293.13;;;2.36;64.99
78986;BME280;68384;55.750;48.746;2023-03-30T03:53:17;99283.84;;;2.38;64.96
78986;BME280;68384;55.750;48.746;2023-03-30T03:54:21;99287.34;;;2.40;65.04
78986;BME280;68384;55.750;48.746;2023-03-30T03:55:23;99280.56;;;2.40;64.92
78986;BME280;68384;55.750;48.746;2023-03-30T03:56:29;99287.53;;;2.43;64.76
78986;BME280;68384;55.750;48.746;2023-03-30T03:57:32;99283.31;;;2.43;64.58
78986;BME280;68384;55.750;48.746;2023-03-30T03:58:35;99280.91;;;2.46;64.71
78986;BME280;68384;55.750;48.746;2023-03-30T03:59:40;99279.06;;;2.44;64.51
78986;BME280;68384;55.750;48.746;2023-03-30T04:00:43;99280.97;;;2.48;64.42
78986;BME280;68384;55.750;48.746;2023-03-30T04:01:47;99280.97;;;2.48;64.64
78986;BME280;68384;55.750;48.746;2023-03-30T04:02:50;99288.03;;;2.52;64.44
78986;BME280;68384;55.750;48.746;2023-03-30T04:03:54;99282.94;;;2.52;64.49
78986;BME280;68384;55.750;48.746;2023-03-30T04:04:56;99293.41;;;2.56;64.43
78986;BME280;68384;55.750;48.746;2023-03-30T04:06:00;99293.47;;;2.58;64.12
78986;BME280;68384;55.750;48.746;2023-03-30T04:07:03;99279.91;;;2.59;64.32
78986;BME280;68384;55.750;48.746;2023-03-30T04:08:07;99295.41;;;2.62;64.01
78986;BME280;68384;55.750;48.746;2023-03-30T04:09:11;99279.19;;;2.62;63.87
78986;BME280;68384;55.750;48.746;2023-03-30T04:10:15;99289.75;;;2.68;64.01
78986;BME280;68384;55.750;48.746;2023-03-30T04:11:18;99278.78;;;2.70;64.07
78986;BME280;68384;55.750;48.746;2023-03-30T04:12:22;99287.34;;;2.71;63.77
78986;BME280;68384;55.750;48.746;2023-03-30T04:13:24;99292.53;;;2.72;64.00
78986;BME280;68384;55.750;48.746;2023-03-30T04:14:57;99292.88;;;2.78;63.60
78986;BME280;68384;55.750;48.746;2023-03-30T04:16:01;99289.53;;;2.79;63.74
78986;BME280;68384;55.750;48.746;2023-03-30T04:17:03;99295.84;;;2.86;63.29
78986;BME280;68384;55.750;48.746;2023-03-30T04:18:07;99292.50;;;2.87;63.23
78986;BME280;68384;55.750;48.746;2023-03-30T04:19:10;99302.06;;;2.91;63.18
78986;BME280;68384;55.750;48.746;2023-03-30T04:20:13;99288.44;;;2.90;63.01
78986;BME280;68384;55.750;48.746;2023-03-30T04:21:16;99290.34;;;2.94;63.12
78986;BME280;68384;55.750;48.746;2023-03-30T04:22:22;99294.56;;;2.94;62.82
78986;BME280;68384;55.750;48.746;2023-03-30T04:23:25;99298.34;;;3.00;63.00
78986;BME280;68384;55.750;48.746;2023-03-30T04:24:32;99292.34;;;3.00;62.79
78986;BME280;68384;55.750;48.746;2023-03-30T04:25:36;99302.03;;;3.05;62.93
78986;BME280;68384;55.750;48.746;2023-03-30T04:26:41;99299.47;;;3.05;62.83
78986;BME280;68384;55.750;48.746;2023-03-30T04:27:50;99297.94;;;3.09;62.69
78986;BME280;68384;55.750;48.746;2023-03-30T04:28:53;99296.34;;;3.11;62.70
78986;BME280;68384;55.750;48.746;2023-03-30T04:29:57;99297.41;;;3.14;62.59
78986;BME280;68384;55.750;48.746;2023-03-30T04:31:05;99294.91;;;3.16;62.69
78986;BME280;68384;55.750;48.746;2023-03-30T04:32:11;99307.88;;;3.19;62.27
78986;BME280;68384;55.750;48.746;2023-03-30T04:33:21;99305.41;;;3.21;62.27
78986;BME280;68384;55.750;48.746;2023-03-30T04:34:25;99305.53;;;3.24;62.34
78986;BME280;68384;55.750;48.746;2023-03-30T04:35:29;99302.28;;;3.26;62.03
78986;BME280;68384;55.750;48.746;2023-03-30T04:36:33;99309.25;;;3.29;62.29
78986;BME280;68384;55.750;48.746;2023-03-30T04:37:36;99304.28;;;3.32;61.91
78986;BME280;68384;55.750;48.746;2023-03-30T04:38:43;99301.00;;;3.34;61.92
78986;BME280;68384;55.750;48.746;2023-03-30T04:39:46;99308.75;;;3.36;61.94
78986;BME280;68384;55.750;48.746;2023-03-30T04:40:51;99291.59;;;3.35;61.88
78986;BME280;68384;55.750;48.746;2023-03-30T04:41:54;99299.53;;;3.39;61.71
78986;BME280;68384;55.750;48.746;2023-03-30T04:42:58;99297.03;;;3.41;61.56
78986;BME280;68384;55.750;48.746;2023-03-30T04:44:06;99292.88;;;3.43;61.50
78986;BME280;68384;55.750;48.746;2023-03-30T04:45:11;99299.13;;;3.48;61.07
78986;BME280;68384;55.750;48.746;2023-03-30T04:46:14;99297.69;;;3.53;61.14
78986;BME280;68384;55.750;48.746;2023-03-30T04:47:17;99293.50;;;3.55;61.07
78986;BME280;68384;55.750;48.746;2023-03-30T04:48:21;99293.72;;;3.59;61.00
78986;BME280;68384;55.750;48.746;2023-03-30T04:49:25;99300.69;;;3.62;60.59
78986;BME280;68384;55.750;48.746;2023-03-30T04:50:28;99294.94;;;3.66;60.63
78986;BME280;68384;55.750;48.746;2023-03-30T04:51:32;99299.38;;;3.70;60.52
78986;BME280;68384;55.750;48.746;2023-03-30T04:52:34;99302.28;;;3.76;60.45
78986;BME280;68384;55.750;48.746;2023-03-30T04:53:38;99294.84;;;3.81;60.50
78986;BME280;68384;55.750;48.746;2023-03-30T04:54:40;99300.16;;;3.85;59.86
78986;BME280;68384;55.750;48.746;2023-03-30T04:55:47;99293.75;;;3.93;60.10
78986;BME280;68384;55.750;48.746;2023-03-30T04:56:50;99290.53;;;3.97;59.82
78986;BME280;68384;55.750;48.746;2023-03-30T04:57:53;99282.91;;;3.99;59.45
78986;BME280;68384;55.750;48.746;2023-03-30T04:58:56;99290.91;;;4.05;59.10
78986;BME280;68384;55.750;48.746;2023-03-30T04:59:59;99294.47;;;4.08;59.19
78986;BME280;68384;55.750;48.746;2023-03-30T05:01:04;99304.09;;;4.12;58.68
78986;BME280;68384;55.750;48.746;2023-03-30T05:02:08;99297.44;;;4.16;58.53
78986;BME280;68384;55.750;48.746;2023-03-30T05:03:11;99289.78;;;4.17;58.74
78986;BME280;68384;55.750;48.746;2023-03-30T05:04:15;99298.53;;;4.21;58.92
78986;BME280;68384;55.750;48.746;2023-03-30T05:05:18;99289.94;;;4.20;58.76
78986;BME280;68384;55.750;48.746;2023-03-30T05:06:21;99292.66;;;4.23;58.33
78986;BME280;68384;55.750;48.746;2023-03-30T05:07:24;99303.88;;;4.25;58.61
78986;BME280;68384;55.750;48.746;2023-03-30T05:08:27;99303.13;;;4.28;58.13
78986;BME280;68384;55.750;48.746;2023-03-30T05:09:30;99297.13;;;4.27;58.06
78986;BME280;68384;55.750;48.746;2023-03-30T05:10:33;99296.25;;;4.27;58.21
78986;BME280;68384;55.750;48.746;2023-03-30T05:11:36;99296.53;;;4.33;57.75
78986;BME280;68384;55.750;48.746;2023-03-30T05:12:40;99296.69;;;4.36;58.70
78986;BME280;68384;55.750;48.746;2023-03-30T05:13:43;99283.06;;;4.37;58.12
78986;BME280;68384;55.750;48.746;2023-03-30T05:14:47;99284.00;;;4.39;58.17
78986;BME280;68384;55.750;48.746;2023-03-30T05:15:52;99283.13;;;4.38;58.06
78986;BME280;68384;55.750;48.746;2023-03-30T05:16:57;99289.22;;;4.41;58.04
78986;BME280;68384;55.750;48.746;2023-03-30T05:18:00;99287.66;;;4.44;58.00
78986;BME280;68384;55.750;48.746;2023-03-30T05:19:03;99283.50;;;4.46;57.44
78986;BME280;68384;55.750;48.746;2023-03-30T05:20:07;99277.53;;;4.47;57.17
78986;BME280;68384;55.750;48.746;2023-03-30T05:21:11;99277.47;;;4.46;57.52
78986;BME280;68384;55.750;48.746;2023-03-30T05:22:14;99282.91;;;4.52;57.29
78986;BME280;68384;55.750;48.746;2023-03-30T05:23:18;99275.06;;;4.49;57.32
78986;BME280;68384;55.750;48.746;2023-03-30T05:24:20;99279.75;;;4.57;57.26
78986;BME280;68384;55.750;48.746;2023-03-30T05:25:24;99276.34;;;4.58;56.87
78986;BME280;68384;55.750;48.746;2023-03-30T05:26:27;99278.91;;;4.58;56.88
78986;BME280;68384;55.750;48.746;2023-03-30T05:27:30;99285.88;;;4.61;56.26
78986;BME280;68384;55.750;48.746;2023-03-30T05:28:33;99283.56;;;4.65;56.36
78986;BME280;68384;55.750;48.746;2023-03-30T05:29:36;99284.50;;;4.67;55.87
78986;BME280;68384;55.750;48.746;2023-03-30T05:30:39;99281.19;;;4.70;55.88
78986;BME280;68384;55.750;48.746;2023-03-30T05:31:43;99288.09;;;4.71;55.74
78986;BME280;68384;55.750;48.746;2023-03-30T05:32:47;99277.06;;;4.73;55.99
78986;BME280;68384;55.750;48.746;2023-03-30T05:33:51;99265.22;;;4.77;56.41
78986;BME280;68384;55.750;48.746;2023-03-30T05:34:53;99270.59;;;4.81;55.44
78986;BME280;68384;55.750;48.746;2023-03-30T05:35:57;99275.97;;;4.86;55.71
78986;BME280;68384;55.750;48.746;2023-03-30T05:37:00;99273.53;;;4.89;55.65
78986;BME280;68384;55.750;48.746;2023-03-30T05:38:04;99268.53;;;4.92;55.48
78986;BME280;68384;55.750;48.746;2023-03-30T05:39:08;99279.75;;;4.94;55.11
78986;BME280;68384;55.750;48.746;2023-03-30T05:40:12;99281.66;;;4.98;54.89
78986;BME280;68384;55.750;48.746;2023-03-30T05:41:14;99272.38;;;5.02;54.97
78986;BME280;68384;55.750;48.746;2023-03-30T05:42:18;99277.66;;;5.05;54.88
78986;BME280;68384;55.750;48.746;2023-03-30T05:43:21;99270.97;;;5.08;54.85
78986;BME280;68384;55.750;48.746;2023-03-30T05:44:24;99272.06;;;5.13;54.44
78986;BME280;68384;55.750;48.746;2023-03-30T05:45:26;99271.19;;;5.13;54.34
78986;BME280;68384;55.750;48.746;2023-03-30T05:46:30;99280.84;;;5.18;54.02
78986;BME280;68384;55.750;48.746;2023-03-30T05:47:34;99268.09;;;5.20;54.01
78986;BME280;68384;55.750;48.746;2023-03-30T05:48:38;99277.63;;;5.22;53.34
78986;BME280;68384;55.750;48.746;2023-03-30T05:49:42;99269.06;;;5.23;53.07
78986;BME280;68384;55.750;48.746;2023-03-30T05:50:46;99273.56;;;5.27;52.72
78986;BME280;68384;55.750;48.746;2023-03-30T05:51:49;99273.75;;;5.32;52.70
78986;BME280;68384;55.750;48.746;2023-03-30T05:52:53;99271.44;;;5.38;52.97
78986;BME280;68384;55.750;48.746;2023-03-30T05:53:56;99262.22;;;5.43;52.69
78986;BME280;68384;55.750;48.746;2023-03-30T05:54:59;99268.75;;;5.35;52.14
78986;BME280;68384;55.750;48.746;2023-03-30T05:56:03;99272.25;;;5.37;52.30
78986;BME280;68384;55.750;48.746;2023-03-30T05:57:06;99264.47;;;5.35;52.15